createdAt,value
2023-04-10T00:01:14.375Z,100.00
2023-04-10T00:03:41.566Z,100.00
2023-04-10T00:06:08.539Z,100.00
2023-04-10T00:08:35.157Z,100.00
2023-04-10T00:11:01.799Z,100.00
2023-04-10T00:13:28.453Z,100.00
2023-04-10T00:15:55.052Z,100.00
2023-04-10T00:18:21.708Z,100.00
2023-04-10T00:20:48.404Z,100.00
2023-04-10T00:23:15.020Z,100.00
2023-04-10T00:25:41.575Z,100.00
2023-04-10T00:28:08.306Z,100.00
2023-04-10T00:30:34.929Z,100.00
2023-04-10T00:33:01.523Z,100.00
2023-04-10T00:35:28.221Z,100.00
2023-04-10T00:37:56.366Z,96.27
2023-04-10T00:40:23.088Z,93.10
2023-04-10T00:42:49.654Z,89.67
2023-04-10T00:45:16.251Z,87.66
2023-04-10T00:47:42.881Z,85.29
2023-04-10T00:50:10.042Z,85.36
2023-04-10T00:52:36.638Z,86.07
2023-04-10T00:55:04.365Z,89.24
2023-04-10T00:57:31.001Z,87.32
2023-04-10T00:59:58.183Z,91.77
2023-04-10T01:02:24.865Z,99.04
2023-04-10T01:04:52.044Z,100.00
2023-04-10T01:07:46.407Z,100.00
2023-04-10T01:10:34.849Z,100.00
2023-04-10T01:13:05.759Z,100.00
2023-04-10T01:15:42.529Z,100.00
2023-04-10T01:18:34.141Z,100.00
2023-04-10T01:21:05.402Z,100.00
2023-04-10T01:23:49.856Z,100.00
2023-04-10T01:26:17.984Z,100.00
2023-04-10T01:29:01.958Z,100.00
2023-04-10T01:31:51.255Z,100.00
2023-04-10T01:34:22.460Z,100.00
2023-04-10T01:36:53.724Z,100.00
2023-04-10T01:39:22.274Z,100.00
2023-04-10T01:41:52.720Z,100.00
2023-04-10T01:44:23.789Z,100.00
2023-04-10T01:46:51.002Z,100.00
2023-04-10T01:49:18.874Z,100.00
2023-04-10T01:51:46.821Z,100.00
2023-04-10T01:54:13.567Z,100.00
2023-04-10T02:02:00.144Z,100.00
2023-04-10T02:04:28.360Z,100.00
2023-04-10T02:07:11.555Z,100.00
2023-04-10T02:10:00.520Z,100.00
2023-04-10T02:12:33.179Z,100.00
2023-04-10T02:15:02.057Z,100.00
2023-04-10T02:17:30.334Z,100.00
2023-04-10T02:19:58.759Z,100.00
2023-04-10T02:22:26.586Z,100.00
2023-04-10T02:24:54.379Z,100.00
2023-04-10T02:27:31.428Z,100.00
2023-04-10T02:29:58.200Z,100.00
2023-04-10T02:32:25.085Z,100.00
2023-04-10T02:34:51.742Z,100.00
2023-04-10T02:37:18.454Z,100.00
2023-04-10T02:39:45.051Z,100.00
2023-04-10T02:42:12.228Z,100.00
2023-04-10T02:44:39.693Z,100.00
2023-04-10T02:47:07.268Z,100.00
2023-04-10T02:49:35.045Z,100.00
2023-04-10T02:52:02.432Z,100.00
2023-04-10T02:54:29.135Z,100.00
2023-04-10T02:56:57.723Z,100.00
2023-04-10T02:59:24.419Z,100.00
2023-04-10T03:01:52.511Z,100.00
2023-04-10T03:04:19.769Z,100.00
2023-04-10T03:06:46.594Z,100.00
2023-04-10T03:09:13.275Z,100.00
2023-04-10T03:11:39.958Z,100.00
2023-04-10T03:14:07.248Z,100.00
2023-04-10T03:16:34.090Z,100.00
2023-04-10T03:19:01.273Z,100.00
2023-04-10T03:21:29.151Z,100.00
2023-04-10T03:23:56.438Z,100.00
2023-04-10T03:26:24.213Z,100.00
2023-04-10T03:28:51.720Z,100.00
2023-04-10T03:31:18.327Z,100.00
2023-04-10T03:33:45.054Z,100.00
2023-04-10T03:36:12.190Z,100.00
2023-04-10T03:38:38.865Z,100.00
2023-04-10T03:41:05.889Z,100.00
2023-04-10T03:43:32.902Z,100.00
2023-04-10T03:45:59.612Z,100.00
2023-04-10T03:48:28.485Z,100.00
2023-04-10T03:50:55.513Z,100.00
2023-04-10T03:53:22.274Z,100.00
2023-04-10T03:55:48.830Z,100.00
2023-04-10T03:58:15.595Z,100.00
2023-04-10T04:00:42.490Z,100.00
2023-04-10T04:03:09.324Z,100.00
2023-04-10T04:05:36.165Z,100.00
2023-04-10T04:08:04.968Z,100.00
2023-04-10T04:10:31.686Z,100.00
2023-04-10T04:12:58.245Z,100.00
2023-04-10T04:15:24.977Z,100.00
2023-04-10T04:17:51.996Z,100.00
2023-04-10T04:20:18.656Z,100.00
2023-04-10T04:22:46.397Z,100.00
2023-04-10T04:25:13.220Z,100.00
2023-04-10T04:27:39.789Z,100.00
2023-04-10T04:30:07.190Z,100.00
2023-04-10T04:32:33.802Z,100.00
2023-04-10T04:35:00.782Z,100.00
2023-04-10T04:37:27.460Z,100.00
2023-04-10T04:39:54.116Z,100.00
2023-04-10T04:42:20.690Z,100.00
2023-04-10T04:44:47.414Z,100.00
2023-04-10T04:47:13.978Z,100.00
2023-04-10T04:49:40.653Z,100.00
2023-04-10T04:52:09.281Z,100.00
2023-04-10T04:54:35.910Z,100.00
2023-04-10T04:57:02.703Z,100.00
2023-04-10T04:59:29.272Z,98.59
2023-04-10T05:01:55.982Z,96.97
2023-04-10T05:04:22.770Z,95.39
2023-04-10T05:06:49.715Z,93.27
2023-04-10T05:09:16.398Z,91.16
2023-04-10T05:11:43.192Z,93.65
2023-04-10T05:14:09.785Z,92.97
2023-04-10T05:16:36.360Z,91.63
2023-04-10T05:19:03.035Z,89.98
2023-04-10T05:21:29.787Z,89.00
2023-04-10T05:23:56.328Z,86.96
2023-04-10T05:26:22.929Z,85.08
2023-04-10T05:28:50.100Z,85.63
2023-04-10T05:31:16.754Z,82.59
2023-04-10T05:33:43.333Z,82.25
2023-04-10T05:36:11.215Z,78.97
2023-04-10T05:38:37.821Z,75.76
2023-04-10T05:41:04.486Z,74.60
2023-04-10T05:43:31.088Z,72.10
2023-04-10T05:45:57.645Z,69.43
2023-04-10T05:48:26.298Z,68.36
2023-04-10T05:50:53.024Z,65.49
2023-04-10T05:53:21.224Z,64.83
2023-04-10T05:55:56.333Z,62.66
2023-04-10T05:58:23.120Z,61.16
2023-04-10T06:00:49.681Z,61.56
2023-04-10T06:03:16.458Z,63.12
2023-04-10T06:05:43.139Z,63.86
2023-04-10T06:08:09.709Z,67.01
2023-04-10T06:10:36.502Z,68.36
2023-04-10T06:13:03.100Z,69.92
2023-04-10T06:15:29.821Z,69.24
2023-04-10T06:17:56.516Z,69.50
2023-04-10T06:20:23.187Z,72.10
2023-04-10T06:22:49.878Z,74.13
2023-04-10T06:25:16.569Z,74.20
2023-04-10T06:27:43.193Z,73.04
2023-04-10T06:30:10.581Z,76.43
2023-04-10T06:32:37.236Z,72.33
2023-04-10T06:35:04.077Z,72.30
2023-04-10T06:37:34.673Z,74.53
2023-04-10T06:40:10.215Z,75.35
2023-04-10T06:42:37.756Z,77.30
2023-04-10T06:45:05.505Z,76.62
2023-04-10T06:47:32.362Z,77.33
2023-04-10T06:49:59.458Z,76.91
2023-04-10T06:52:26.600Z,79.92
2023-04-10T06:54:53.229Z,83.42
2023-04-10T06:57:19.934Z,82.80
2023-04-10T06:59:46.737Z,83.81
2023-04-10T07:02:13.431Z,82.99
2023-04-10T07:04:40.202Z,82.54
2023-04-10T07:07:09.990Z,81.07
2023-04-10T07:09:36.779Z,82.94
2023-04-10T07:12:03.762Z,83.24
2023-04-10T07:14:31.356Z,82.64
2023-04-10T07:16:58.004Z,80.66
2023-04-10T07:19:24.686Z,79.38
2023-04-10T07:21:51.547Z,81.53
2023-04-10T07:24:18.647Z,83.40
2023-04-10T07:26:46.312Z,83.69
2023-04-10T07:29:14.181Z,81.38
2023-04-10T07:31:40.875Z,80.40
2023-04-10T07:34:07.769Z,82.40
2023-04-10T07:36:34.415Z,81.03
2023-04-10T07:39:01.155Z,79.04
2023-04-10T07:41:27.786Z,79.05
2023-04-10T07:43:54.330Z,78.91
2023-04-10T07:46:21.180Z,75.76
2023-04-10T07:48:48.065Z,72.92
2023-04-10T07:51:14.640Z,72.19
2023-04-10T07:53:41.372Z,73.10
2023-04-10T07:56:08.575Z,73.57
2023-04-10T07:58:36.118Z,72.38
2023-04-10T08:01:02.722Z,71.78
2023-04-10T08:03:29.501Z,70.98
2023-04-10T08:05:56.587Z,71.67
2023-04-10T08:08:23.293Z,71.76
2023-04-10T08:10:50.298Z,73.28
2023-04-10T08:13:16.956Z,72.81
2023-04-10T08:15:43.657Z,73.41
2023-04-10T08:18:10.474Z,73.09
2023-04-10T08:20:37.239Z,72.74
2023-04-10T08:23:19.132Z,72.27
2023-04-10T08:25:47.255Z,74.15
2023-04-10T08:28:13.894Z,71.47
2023-04-10T08:30:40.554Z,70.91
2023-04-10T08:33:07.336Z,71.78
2023-04-10T08:35:34.156Z,73.61
2023-04-10T08:38:12.669Z,74.68
2023-04-10T08:40:40.621Z,73.74
2023-04-10T08:43:07.251Z,72.54
2023-04-10T08:45:33.987Z,74.19
2023-04-10T08:48:05.918Z,73.47
2023-04-10T08:50:36.188Z,73.61
2023-04-10T08:53:11.055Z,73.30
2023-04-10T08:55:39.618Z,71.64
2023-04-10T08:58:07.320Z,71.72
2023-04-10T09:00:36.048Z,71.32
2023-04-10T09:03:05.004Z,72.01
2023-04-10T09:05:32.052Z,71.61
2023-04-10T09:07:58.958Z,71.28
2023-04-10T09:10:25.699Z,71.98
2023-04-10T09:12:52.349Z,69.40
2023-04-10T09:15:18.907Z,70.50
2023-04-10T09:17:56.836Z,71.53
2023-04-10T09:20:25.792Z,69.52
2023-04-10T09:22:52.784Z,70.21
2023-04-10T09:25:32.631Z,68.92
2023-04-10T09:28:07.446Z,68.87
2023-04-10T09:30:40.160Z,67.70
2023-04-10T09:33:27.555Z,68.88
2023-04-10T09:35:57.381Z,69.57
2023-04-10T09:38:23.948Z,69.69
2023-04-10T09:40:51.101Z,70.22
2023-04-10T09:43:24.037Z,69.66
2023-04-10T09:45:56.380Z,69.98
2023-04-10T09:48:24.794Z,68.70
2023-04-10T09:50:52.045Z,68.98
2023-04-10T09:53:20.783Z,68.39
2023-04-10T09:55:48.800Z,67.43
2023-04-10T09:58:17.521Z,66.61
2023-04-10T10:00:46.364Z,66.40
2023-04-10T10:03:17.996Z,66.12
2023-04-10T10:05:49.884Z,64.46
2023-04-10T10:08:17.373Z,64.77
2023-04-10T10:11:07.683Z,64.73
2023-04-10T10:13:56.886Z,65.25
2023-04-10T10:16:29.616Z,64.43
2023-04-10T10:19:17.335Z,63.50
2023-04-10T10:21:45.958Z,64.14
2023-04-10T10:24:13.771Z,64.23
2023-04-10T10:26:40.884Z,64.76
2023-04-10T10:29:13.430Z,66.00
2023-04-10T10:31:40.672Z,65.46
2023-04-10T10:34:09.359Z,65.98
2023-04-10T10:36:36.738Z,65.83
2023-04-10T10:39:22.989Z,65.71
2023-04-10T10:42:05.148Z,65.57
2023-04-10T10:45:01.717Z,66.03
2023-04-10T10:47:30.988Z,64.93
2023-04-10T10:49:58.635Z,65.32
2023-04-10T10:52:57.826Z,65.34
2023-04-10T10:55:36.797Z,65.27
2023-04-10T10:58:08.702Z,66.21
2023-04-10T11:00:50.516Z,65.00
2023-04-10T11:03:17.469Z,65.37
2023-04-10T11:06:03.002Z,63.75
2023-04-10T11:08:32.620Z,63.25
2023-04-10T11:11:00.023Z,63.47
2023-04-10T11:13:26.623Z,63.10
2023-04-10T11:15:54.603Z,62.99
2023-04-10T11:18:59.291Z,62.95
2023-04-10T11:21:29.760Z,63.39
2023-04-10T11:23:56.426Z,64.78
2023-04-10T11:26:41.730Z,67.26
2023-04-10T11:29:17.373Z,67.38
2023-04-10T11:31:45.516Z,66.74
2023-04-10T11:34:12.772Z,67.10
2023-04-10T11:36:44.706Z,67.41
2023-04-10T11:39:21.808Z,67.36
2023-04-10T11:41:50.819Z,67.65
2023-04-10T11:44:32.214Z,67.60
2023-04-10T11:46:59.118Z,67.12
2023-04-10T11:49:28.172Z,66.39
2023-04-10T11:51:55.708Z,65.34
2023-04-10T11:54:24.397Z,66.27
2023-04-10T11:57:05.682Z,66.03
2023-04-10T11:59:34.254Z,66.58
2023-04-10T12:02:19.300Z,67.19
2023-04-10T12:04:46.300Z,68.09
2023-04-10T12:07:13.098Z,69.36
2023-04-10T12:09:39.908Z,69.06
2023-04-10T12:12:08.290Z,69.34
2023-04-10T12:14:35.388Z,69.82
2023-04-10T12:17:03.705Z,70.86
2023-04-10T12:19:30.984Z,72.92
2023-04-10T12:21:59.111Z,75.76
2023-04-10T12:24:41.028Z,92.14
2023-04-10T12:27:08.561Z,100.00
2023-04-10T12:29:35.482Z,100.00
2023-04-10T12:32:09.388Z,100.00
2023-04-10T12:34:39.918Z,100.00
2023-04-10T12:37:08.008Z,100.00
2023-04-10T12:39:34.635Z,100.00
2023-04-10T12:42:15.690Z,100.00
2023-04-10T12:45:01.518Z,100.00
2023-04-10T12:47:29.655Z,100.00
2023-04-10T12:50:06.695Z,100.00
2023-04-10T12:52:33.810Z,100.00
2023-04-10T12:55:18.225Z,100.00
2023-04-10T12:57:47.463Z,100.00
2023-04-10T13:00:20.129Z,100.00
2023-04-10T13:02:48.992Z,100.00
2023-04-10T13:05:16.021Z,100.00
2023-04-10T13:07:42.940Z,100.00
2023-04-10T13:10:10.375Z,100.00
2023-04-10T13:12:38.903Z,100.00
2023-04-10T13:15:07.747Z,100.00
2023-04-10T13:17:35.057Z,100.00
2023-04-10T13:20:02.068Z,100.00
2023-04-10T13:22:28.713Z,100.00
2023-04-10T13:24:55.570Z,100.00
2023-04-10T13:27:22.206Z,100.00
2023-04-10T13:29:48.841Z,100.00
2023-04-10T13:32:15.844Z,100.00
2023-04-10T13:34:42.571Z,100.00
2023-04-10T13:37:11.662Z,100.00
2023-04-10T13:39:38.346Z,100.00
2023-04-10T13:42:05.030Z,97.88
2023-04-10T13:44:32.289Z,100.00
2023-04-10T13:46:59.443Z,100.00
2023-04-10T13:49:26.129Z,97.63
2023-04-10T13:51:52.701Z,96.39
2023-04-10T13:54:20.180Z,98.99
2023-04-10T13:56:46.972Z,94.76
2023-04-10T13:59:13.893Z,94.01
2023-04-10T14:01:40.601Z,95.75
2023-04-10T14:04:07.510Z,93.42
2023-04-10T14:06:34.286Z,90.96
2023-04-10T14:09:01.253Z,89.16
2023-04-10T14:11:27.909Z,87.66
2023-04-10T14:13:54.563Z,88.25
2023-04-10T14:16:21.206Z,88.16
2023-04-10T14:18:47.862Z,89.02
2023-04-10T14:21:14.552Z,88.97
2023-04-10T14:23:42.419Z,89.45
2023-04-10T14:26:09.333Z,90.08
2023-04-10T14:28:35.976Z,91.82
2023-04-10T14:31:02.754Z,92.10
2023-04-10T14:33:29.697Z,90.75
2023-04-10T14:35:56.380Z,91.22
2023-04-10T14:38:22.963Z,91.29
2023-04-10T14:40:50.374Z,91.45
2023-04-10T14:43:17.499Z,91.83
2023-04-10T14:45:44.171Z,92.54
2023-04-10T14:48:12.870Z,93.28
2023-04-10T14:50:40.006Z,93.22
2023-04-10T14:53:09.618Z,94.67
2023-04-10T14:55:37.618Z,95.74
2023-04-10T14:58:06.928Z,96.16
2023-04-10T15:00:33.497Z,95.72
2023-04-10T15:03:00.440Z,93.94
2023-04-10T15:05:27.915Z,93.57
2023-04-10T15:07:54.940Z,94.08
2023-04-10T15:10:21.784Z,90.80
2023-04-10T15:12:48.574Z,90.41
2023-04-10T15:15:15.343Z,88.60
2023-04-10T15:17:41.948Z,88.33
2023-04-10T15:20:09.099Z,86.41
2023-04-10T15:22:35.931Z,88.16
2023-04-10T15:25:02.882Z,85.57
2023-04-10T15:27:29.580Z,88.48
2023-04-10T15:29:56.167Z,87.34
2023-04-10T15:32:22.773Z,87.93
2023-04-10T15:34:49.460Z,88.30
2023-04-10T15:37:16.097Z,87.75
2023-04-10T15:39:42.704Z,87.87
2023-04-10T15:42:09.246Z,89.13
2023-04-10T15:44:36.141Z,90.53
2023-04-10T15:47:02.713Z,90.68
2023-04-10T15:49:37.792Z,90.79
2023-04-10T15:52:06.729Z,88.13
2023-04-10T15:54:34.751Z,87.61
2023-04-10T15:57:02.345Z,87.18
2023-04-10T15:59:29.370Z,87.20
2023-04-10T16:01:56.416Z,88.16
2023-04-10T16:04:23.365Z,88.64
2023-04-10T16:06:50.660Z,87.96
2023-04-10T16:11:48.778Z,86.80
2023-04-10T16:14:15.525Z,85.94
2023-04-10T16:16:42.109Z,87.40
2023-04-10T16:19:09.921Z,86.66
2023-04-10T16:21:36.683Z,86.67
2023-04-10T16:24:03.480Z,86.27
2023-04-10T16:26:30.257Z,87.22
2023-04-10T16:28:57.302Z,88.45
2023-04-10T16:31:24.166Z,88.83
2023-04-10T16:33:50.907Z,87.98
2023-04-10T16:36:17.571Z,87.27
2023-04-10T16:38:44.646Z,88.24
2023-04-10T16:41:12.701Z,87.76
2023-04-10T16:43:39.462Z,99.53
2023-04-10T16:46:06.364Z,100.00
2023-04-10T16:48:34.918Z,100.00
2023-04-10T16:51:06.261Z,100.00
2023-04-10T16:53:33.643Z,100.00
2023-04-10T16:56:03.523Z,100.00
2023-04-10T16:58:31.580Z,100.00
2023-04-10T17:00:58.923Z,100.00
2023-04-10T17:03:25.859Z,100.00
2023-04-10T17:05:52.536Z,100.00
2023-04-10T17:08:19.100Z,100.00
2023-04-10T17:10:45.784Z,100.00
2023-04-10T17:13:12.453Z,100.00
2023-04-10T17:15:39.025Z,100.00
2023-04-10T17:18:05.639Z,100.00
2023-04-10T17:20:36.114Z,100.00
2023-04-10T17:23:03.118Z,100.00
2023-04-10T17:25:30.197Z,100.00
2023-04-10T17:27:57.868Z,100.00
2023-04-10T17:30:24.694Z,100.00
2023-04-10T17:32:51.270Z,100.00
2023-04-10T17:35:18.135Z,100.00
2023-04-10T17:37:44.789Z,100.00
2023-04-10T17:40:11.953Z,100.00
2023-04-10T17:42:38.644Z,100.00
2023-04-10T17:45:05.990Z,100.00
2023-04-10T17:47:32.868Z,100.00
2023-04-10T17:49:59.502Z,100.00
2023-04-10T17:52:26.512Z,100.00
2023-04-10T17:54:53.113Z,100.00
2023-04-10T17:57:19.693Z,100.00
2023-04-10T17:59:46.334Z,100.00
2023-04-10T18:02:13.001Z,100.00
2023-04-10T18:04:39.615Z,100.00
2023-04-10T18:07:06.563Z,100.00
2023-04-10T18:09:33.178Z,100.00
2023-04-10T18:11:59.888Z,100.00
2023-04-10T18:14:26.621Z,100.00
2023-04-10T18:16:53.248Z,100.00
2023-04-10T18:19:19.827Z,100.00
2023-04-10T18:21:46.534Z,100.00
2023-04-10T18:24:14.036Z,100.00
2023-04-10T18:26:40.774Z,100.00
2023-04-10T18:29:07.839Z,100.00
2023-04-10T18:31:34.394Z,100.00
2023-04-10T18:34:07.875Z,100.00
2023-04-10T18:36:35.314Z,100.00
2023-04-10T18:39:01.961Z,100.00
2023-04-10T18:41:28.947Z,100.00
2023-04-10T18:44:04.326Z,100.00
2023-04-10T18:46:32.833Z,100.00
2023-04-10T18:49:01.302Z,100.00
2023-04-10T18:51:28.300Z,100.00
2023-04-10T18:53:55.760Z,100.00
2023-04-10T18:56:22.700Z,100.00
2023-04-10T18:58:50.200Z,100.00
2023-04-10T19:01:18.021Z,100.00
2023-04-10T19:03:47.756Z,100.00
2023-04-10T19:06:17.634Z,100.00
2023-04-10T19:08:44.240Z,100.00
2023-04-10T19:11:12.406Z,100.00
2023-04-10T19:13:39.179Z,100.00
2023-04-10T19:16:06.126Z,100.00
2023-04-10T19:18:32.750Z,100.00
2023-04-10T19:20:59.567Z,100.00
2023-04-10T19:23:26.898Z,100.00
2023-04-10T19:25:54.878Z,100.00
2023-04-10T19:28:23.296Z,100.00
2023-04-10T19:30:50.540Z,100.00
2023-04-10T19:33:17.486Z,100.00
2023-04-10T19:35:44.327Z,100.00
2023-04-10T19:38:11.138Z,100.00
2023-04-10T19:40:37.878Z,100.00
2023-04-10T19:43:04.506Z,100.00
2023-04-10T19:45:33.157Z,100.00
2023-04-10T19:48:00.421Z,100.00
2023-04-10T19:50:30.132Z,100.00
2023-04-10T19:52:57.697Z,100.00
2023-04-10T19:55:24.330Z,100.00
2023-04-10T19:57:51.195Z,100.00
2023-04-10T20:00:18.844Z,100.00
2023-04-10T20:02:45.690Z,100.00
2023-04-10T20:05:12.515Z,100.00
2023-04-10T20:07:39.221Z,100.00
2023-04-10T20:10:06.491Z,100.00
2023-04-10T20:12:33.311Z,100.00
2023-04-10T20:15:04.081Z,100.00
2023-04-10T20:17:31.365Z,100.00
2023-04-10T20:19:58.347Z,100.00
2023-04-10T20:22:25.536Z,100.00
2023-04-10T20:24:52.181Z,100.00
2023-04-10T20:27:18.796Z,100.00
2023-04-10T20:29:45.452Z,100.00
2023-04-10T20:32:12.255Z,100.00
2023-04-10T20:34:38.953Z,100.00
2023-04-10T20:37:05.899Z,100.00
2023-04-10T20:39:33.462Z,100.00
2023-04-10T20:42:00.141Z,100.00
2023-04-10T20:44:26.765Z,100.00
2023-04-10T20:46:53.440Z,100.00
2023-04-10T20:49:20.103Z,100.00
2023-04-10T20:51:47.377Z,100.00
2023-04-10T20:54:14.014Z,100.00
2023-04-10T20:56:43.827Z,100.00
2023-04-10T20:59:11.351Z,100.00
2023-04-10T21:01:38.549Z,100.00
2023-04-10T21:04:05.782Z,100.00
2023-04-10T21:06:33.718Z,100.00
2023-04-10T21:09:00.909Z,100.00
2023-04-10T21:11:27.701Z,100.00
2023-04-10T21:13:54.497Z,100.00
2023-04-10T21:16:21.233Z,100.00
2023-04-10T21:18:47.942Z,100.00
2023-04-10T21:21:14.707Z,100.00
2023-04-10T21:23:41.465Z,100.00
2023-04-10T21:26:08.205Z,100.00
2023-04-10T21:28:34.850Z,100.00
2023-04-10T21:31:01.632Z,100.00
2023-04-10T21:33:28.380Z,100.00
2023-04-10T21:35:56.007Z,100.00
2023-04-10T21:38:23.972Z,100.00
2023-04-10T21:40:51.565Z,100.00
2023-04-10T21:43:18.611Z,100.00
2023-04-10T21:45:45.295Z,100.00
2023-04-10T21:48:12.023Z,100.00
2023-04-10T21:50:38.748Z,100.00
2023-04-10T21:53:05.384Z,100.00
2023-04-10T21:55:31.996Z,100.00
2023-04-10T21:57:58.556Z,100.00
2023-04-10T22:00:25.197Z,100.00
2023-04-10T22:02:52.256Z,100.00
2023-04-10T22:05:19.241Z,100.00
2023-04-10T22:07:45.778Z,100.00
2023-04-10T22:10:12.490Z,100.00
2023-04-10T22:12:39.185Z,100.00
2023-04-10T22:15:07.865Z,100.00
2023-04-10T22:17:34.791Z,100.00
2023-04-10T22:20:02.068Z,100.00
2023-04-10T22:22:28.936Z,100.00
2023-04-10T22:24:55.715Z,100.00
2023-04-10T22:27:23.638Z,100.00
2023-04-10T22:30:02.081Z,100.00
2023-04-10T22:32:30.547Z,100.00
2023-04-10T22:34:58.900Z,100.00
2023-04-10T22:37:26.196Z,100.00
2023-04-10T22:39:52.992Z,100.00
2023-04-10T22:42:19.639Z,100.00
2023-04-10T22:44:46.785Z,100.00
2023-04-10T22:47:13.486Z,100.00
2023-04-10T22:49:40.392Z,100.00
2023-04-10T22:52:07.364Z,100.00
2023-04-10T22:54:34.262Z,100.00
2023-04-10T22:57:00.832Z,100.00
2023-04-10T22:59:27.442Z,100.00
2023-04-10T23:01:54.061Z,100.00
2023-04-10T23:04:20.894Z,100.00
2023-04-10T23:06:47.576Z,100.00
2023-04-10T23:09:14.232Z,100.00
2023-04-10T23:11:41.001Z,100.00
2023-04-10T23:14:07.792Z,100.00
2023-04-10T23:16:34.599Z,100.00
2023-04-10T23:19:01.195Z,100.00
2023-04-10T23:21:27.976Z,100.00
2023-04-10T23:23:54.565Z,100.00
2023-04-10T23:26:21.289Z,100.00
2023-04-10T23:28:48.171Z,100.00
2023-04-10T23:31:15.775Z,100.00
2023-04-10T23:49:29.482Z,100.00
2023-04-10T23:51:56.040Z,100.00
2023-04-10T23:54:22.644Z,100.00
2023-04-10T23:56:49.472Z,100.00
2023-04-10T23:59:17.081Z,100.00
